Time;durP1;ratioP1;P1;durP2;ratioP2;P2;SDS_P1;SDS_P2;PMS_P1;PMS_P2;Temp;Humidity;BMP_temperature;BMP_pressure;BME280_temperature;BME280_humidity;BME280_pressure;Samples;Min_cycle;Max_cycle;Signal;HPM_P1;HPM_P2
2021/03/07 00:00:24;;;;;;;5.95;4.47;;;-1.60;1.00;;;;;;5055257;28;20490;-74
2021/03/07 00:02:51;;;;;;;6.50;4.55;;;-1.60;1.00;;;;;;5055419;28;20262;-69
2021/03/07 00:05:17;;;;;;;10.13;4.43;;;-1.50;1.00;;;;;;5055304;28;20187;-70
2021/03/07 00:07:45;;;;;;;8.38;4.95;;;-1.50;1.00;;;;;;5055196;28;20164;-69
2021/03/07 00:10:12;;;;;;;8.50;4.47;;;-1.50;1.00;;;;;;5055151;28;20156;-70
2021/03/07 00:12:38;;;;;;;6.75;4.40;;;-1.40;1.00;;;;;;5050835;28;20199;-70
2021/03/07 00:15:06;;;;;;;10.00;5.30;;;-1.40;1.00;;;;;;5034939;28;20161;-69
2021/03/07 00:17:32;;;;;;;10.18;5.05;;;-1.40;1.00;;;;;;5034290;28;20179;-70
2021/03/07 00:19:58;;;;;;;7.03;4.30;;;;;;;;;;5034756;28;20614;-70
2021/03/07 00:22:24;;;;;;;6.13;4.43;;;-1.40;1.00;;;;;;5042443;28;20183;-70
2021/03/07 00:24:50;;;;;;;8.93;5.00;;;;;;;;;;5054863;28;20673;-70
2021/03/07 00:27:16;;;;;;;9.77;4.20;;;;;;;;;;5052864;28;20160;-69
2021/03/07 00:29:42;;;;;;;8.68;4.60;;;-1.40;1.00;;;;;;5034875;28;20756;-70
2021/03/07 00:32:08;;;;;;;7.87;4.40;;;;;;;;;;5035210;28;20172;-70
2021/03/07 00:34:34;;;;;;;7.83;4.27;;;-1.40;1.00;;;;;;5043329;28;20552;-70
2021/03/07 00:37:00;;;;;;;7.53;4.30;;;;;;;;;;5043111;28;20441;-70
2021/03/07 00:39:26;;;;;;;9.73;4.68;;;-1.50;1.00;;;;;;5034473;28;20222;-70
2021/03/07 00:41:52;;;;;;;9.00;4.20;;;;;;;;;;5034768;28;20220;-69
2021/03/07 00:44:18;;;;;;;8.02;4.95;;;-1.60;1.00;;;;;;5034619;28;20433;-70
2021/03/07 00:46:46;;;;;;;8.38;4.47;;;-1.50;1.00;;;;;;5034625;28;20495;-70
2021/03/07 00:49:14;;;;;;;9.60;4.63;;;-1.80;1.00;;;;;;5034809;28;20172;-69
2021/03/07 00:51:40;;;;;;;9.57;4.88;;;-1.60;1.00;;;;;;5035854;28;20176;-70
2021/03/07 00:54:06;;;;;;;10.33;4.03;;;;;;;;;;5054424;28;20213;-69
2021/03/07 00:56:32;;;;;;;9.65;4.80;;;;;;;;;;5054272;28;20214;-69
2021/03/07 00:58:58;;;;;;;11.07;4.80;;;-1.70;1.00;;;;;;5035341;28;20184;-69
2021/03/07 01:01:23;;;;;;;8.60;5.10;;;-1.70;1.00;;;;;;5034185;28;20395;-70
2021/03/07 01:03:49;;;;;;;3.93;3.47;;;-1.70;1.00;;;;;;5034580;28;20160;-69
2021/03/07 01:06:15;;;;;;;6.93;4.50;;;;;;;;;;5033972;28;20290;-70
2021/03/07 01:08:41;;;;;;;5.85;4.13;;;;;;;;;;5034150;28;20164;-69
2021/03/07 01:11:07;;;;;;;12.93;4.10;;;-1.80;1.00;;;;;;5034180;28;20160;-70
2021/03/07 01:13:33;;;;;;;9.35;4.72;;;;;;;;;;5033868;28;20187;-69
2021/03/07 01:15:59;;;;;;;13.27;4.68;;;-1.90;1.00;;;;;;5034039;28;20195;-70
2021/03/07 01:18:25;;;;;;;9.20;4.90;;;;;;;;;;5034265;28;20161;-74
2021/03/07 01:20:51;;;;;;;8.98;4.50;;;-1.90;1.00;;;;;;5033483;28;20178;-74
2021/03/07 01:23:19;;;;;;;7.53;4.82;;;-2.00;1.00;;;;;;5048636;28;20198;-74
2021/03/07 01:25:44;;;;;;;8.23;4.75;;;-2.00;1.00;;;;;;5053855;28;20152;-74
2021/03/07 01:28:10;;;;;;;11.10;5.50;;;;;;;;;;5053000;28;20232;-74
2021/03/07 01:30:38;;;;;;;8.30;5.28;;;-2.00;1.00;;;;;;5053672;28;20227;-74
2021/03/07 01:33:06;;;;;;;8.07;5.07;;;-2.10;1.00;;;;;;5053897;28;20183;-74
2021/03/07 01:35:32;;;;;;;7.97;4.40;;;-2.00;1.00;;;;;;5036846;28;20261;-74
2021/03/07 01:37:58;;;;;;;7.22;5.05;;;-2.10;1.00;;;;;;5038322;28;20542;-74
2021/03/07 01:40:28;;;;;;;10.80;5.07;;;-2.10;1.00;;;;;;5034840;28;20203;-74
2021/03/07 01:42:57;;;;;;;8.25;4.10;;;-2.10;1.00;;;;;;5040928;28;20329;-74
2021/03/07 01:45:25;;;;;;;14.30;5.68;;;-2.20;1.00;;;;;;5053141;28;20229;-74
2021/03/07 01:47:56;;;;;;;8.10;4.75;;;-2.20;1.00;;;;;;5053663;28;20550;-74
2021/03/07 01:50:23;;;;;;;8.80;4.63;;;-2.30;1.00;;;;;;5053262;28;20163;-73
2021/03/07 01:52:49;;;;;;;10.18;5.05;;;-2.30;1.00;;;;;;5053152;28;20206;-74
2021/03/07 01:55:18;;;;;;;8.02;4.80;;;-2.30;1.00;;;;;;5053238;28;20613;-74
2021/03/07 01:57:46;;;;;;;6.50;4.35;;;-2.30;1.00;;;;;;5052335;28;20633;-73
2021/03/07 02:00:13;;;;;;;8.25;4.43;;;-2.30;1.00;;;;;;5053147;28;20171;-74
2021/03/07 02:05:07;;;;;;;7.73;5.70;;;-2.30;1.00;;;;;;5046367;28;20580;-74
2021/03/07 02:07:33;;;;;;;7.93;5.25;;;-2.40;1.00;;;;;;5051586;28;20179;-74
2021/03/07 02:09:59;;;;;;;7.53;4.17;;;-2.30;1.00;;;;;;5052939;28;20683;-74
2021/03/07 02:12:26;;;;;;;7.53;4.87;;;-2.40;1.00;;;;;;5035342;28;20198;-74
2021/03/07 02:14:54;;;;;;;9.05;4.90;;;-2.40;1.00;;;;;;5033271;28;20203;-74
2021/03/07 02:17:21;;;;;;;16.08;6.30;;;-2.40;1.00;;;;;;5032962;28;20248;-74
2021/03/07 02:19:49;;;;;;;9.80;5.30;;;-2.40;1.00;;;;;;5032971;28;20163;-70
2021/03/07 02:22:24;;;;;;;10.88;5.63;;;-2.40;1.00;;;;;;5035835;28;20525;-69
2021/03/07 02:24:49;;;;;;;9.98;6.10;;;-2.40;1.00;;;;;;5048210;28;20171;-69
2021/03/07 02:27:15;;;;;;;10.13;5.80;;;;;;;;;;5050289;28;20259;-70
2021/03/07 02:29:41;;;;;;;11.50;5.90;;;;;;;;;;5052733;28;20406;-70
2021/03/07 02:32:24;;;;;;;12.13;5.75;;;-2.40;1.00;;;;;;5052603;28;20399;-70
2021/03/07 02:34:57;;;;;;;10.38;5.57;;;-2.40;1.00;;;;;;5052948;28;20184;-74
2021/03/07 02:37:23;;;;;;;10.70;5.68;;;-2.40;1.00;;;;;;5050647;28;20160;-73
2021/03/07 02:39:51;;;;;;;10.02;6.10;;;-1.80;1.00;;;;;;5035773;28;20191;-73
2021/03/07 02:42:23;;;;;;;10.07;5.53;;;-2.50;1.00;;;;;;5032567;28;20200;-74
2021/03/07 02:45:13;;;;;;;9.90;6.28;;;-2.40;1.00;;;;;;5032698;28;20167;-74
2021/03/07 02:47:47;;;;;;;11.52;6.20;;;-2.50;1.00;;;;;;5032542;28;20187;-74
2021/03/07 02:50:29;;;;;;;9.55;5.68;;;-2.50;1.00;;;;;;5032908;28;20153;-69
2021/03/07 02:53:09;;;;;;;9.48;5.15;;;-2.60;1.00;;;;;;5044329;28;20540;-70
2021/03/07 02:55:37;;;;;;;6.50;4.65;;;-2.60;1.00;;;;;;5051421;28;20234;-70
2021/03/07 02:58:09;;;;;;;8.95;5.40;;;-2.60;1.00;;;;;;5052507;28;20163;-70
2021/03/07 03:00:39;;;;;;;14.20;6.28;;;-2.60;1.00;;;;;;5034155;28;20682;-69
2021/03/07 03:03:10;;;;;;;14.82;5.78;;;-2.70;1.00;;;;;;5032365;28;20192;-70
2021/03/07 03:05:38;;;;;;;10.73;5.63;;;-2.70;1.00;;;;;;5032321;28;20161;-74
2021/03/07 03:08:05;;;;;;;8.98;5.68;;;-2.70;1.00;;;;;;5041152;28;20561;-74
2021/03/07 03:10:32;;;;;;;11.65;6.28;;;-2.70;1.00;;;;;;5051748;28;20233;-73
2021/03/07 03:13:00;;;;;;;17.23;5.70;;;-2.80;1.00;;;;;;5052366;28;20179;-74
2021/03/07 03:15:26;;;;;;;9.60;5.85;;;-2.80;1.00;;;;;;5051990;28;20168;-74
2021/03/07 03:17:53;;;;;;;11.82;6.10;;;-2.80;1.00;;;;;;5051025;28;20617;-73
2021/03/07 03:20:20;;;;;;;9.30;5.45;;;-2.80;1.00;;;;;;5052289;28;20163;-70
2021/03/07 03:22:50;;;;;;;10.43;5.70;;;-2.90;1.00;;;;;;5041364;28;20195;-70
2021/03/07 03:25:16;;;;;;;8.00;5.00;;;-2.90;1.00;;;;;;5032258;28;20168;-70
2021/03/07 03:27:42;;;;;;;10.93;5.82;;;-2.80;1.00;;;;;;5032272;28;20160;-70
2021/03/07 03:30:13;;;;;;;29.03;9.37;;;-2.80;1.00;;;;;;5049122;28;20640;-69
2021/03/07 03:32:39;;;;;;;25.92;9.20;;;-2.80;1.00;;;;;;5052012;28;20180;-69
2021/03/07 03:35:08;;;;;;;38.03;13.50;;;-2.80;1.00;;;;;;5052353;28;20310;-70
2021/03/07 03:37:34;;;;;;;25.17;10.32;;;;;;;;;;5051931;28;20180;-70
2021/03/07 03:40:00;;;;;;;19.67;6.65;;;-2.80;1.00;;;;;;5038133;28;20195;-70
2021/03/07 03:42:27;;;;;;;11.05;6.50;;;-2.80;1.00;;;;;;5050033;28;20211;-70
2021/03/07 03:44:56;;;;;;;12.50;5.50;;;-2.80;1.00;;;;;;5052011;28;20678;-70
2021/03/07 03:47:22;;;;;;;8.00;5.20;;;-2.70;1.00;;;;;;5050792;28;20625;-70
2021/03/07 03:49:59;;;;;;;11.23;6.15;;;-2.70;1.00;;;;;;5052265;28;20156;-74
2021/03/07 03:52:26;;;;;;;11.63;6.32;;;-2.70;1.00;;;;;;5054722;28;20172;-74
2021/03/07 03:54:58;;;;;;;13.70;6.63;;;-2.70;1.00;;;;;;5044861;28;20184;-74
2021/03/07 03:57:28;;;;;;;10.45;6.20;;;-2.70;1.00;;;;;;5035584;28;20168;-74
2021/03/07 03:59:59;;;;;;;21.02;6.35;;;-2.70;1.00;;;;;;5047852;28;20172;-74
2021/03/07 04:02:26;;;;;;;12.43;6.30;;;-2.70;1.00;;;;;;5055371;28;20546;-74
2021/03/07 04:04:57;;;;;;;11.57;5.75;;;-2.70;1.00;;;;;;5055756;28;20175;-74
2021/03/07 04:07:25;;;;;;;10.88;5.82;;;-2.70;1.00;;;;;;5055425;28;20183;-74
2021/03/07 04:09:54;;;;;;;13.32;6.05;;;-2.70;1.00;;;;;;5042648;28;20176;-74
2021/03/07 04:12:22;;;;;;;10.80;5.55;;;-2.70;1.00;;;;;;5035304;28;20184;-74
2021/03/07 04:14:48;;;;;;;11.82;6.80;;;-2.60;1.00;;;;;;5035382;28;20636;-74
2021/03/07 04:17:18;;;;;;;14.65;6.55;;;-2.70;1.00;;;;;;5035236;28;20639;-74
2021/03/07 04:19:45;;;;;;;10.05;6.20;;;-2.70;1.00;;;;;;5035116;28;20157;-73
2021/03/07 04:22:13;;;;;;;10.57;5.95;;;-2.70;1.00;;;;;;5040827;28;20690;-74
2021/03/07 04:24:39;;;;;;;11.52;5.75;;;-2.70;1.00;;;;;;5041277;28;20248;-74
2021/03/07 04:27:06;;;;;;;14.20;6.87;;;-2.70;1.00;;;;;;5034902;28;20168;-74
2021/03/07 04:29:32;;;;;;;9.90;6.00;;;-2.80;1.00;;;;;;5034976;28;20244;-74
2021/03/07 04:31:58;;;;;;;8.25;5.15;;;-2.70;1.00;;;;;;5034707;28;20164;-74
2021/03/07 04:34:24;;;;;;;10.80;6.17;;;-2.70;1.00;;;;;;5035121;28;20191;-73
2021/03/07 04:36:51;;;;;;;9.73;6.13;;;-2.80;1.00;;;;;;5034906;28;20235;-74
2021/03/07 04:39:18;;;;;;;13.60;6.35;;;;;;;;;;5034313;28;20664;-74
2021/03/07 04:41:44;;;;;;;9.35;6.05;;;;;;;;;;5038330;28;20192;-74
2021/03/07 04:44:09;;;;;;;10.65;6.03;;;-2.90;1.00;;;;;;5034759;28;20172;-74
2021/03/07 04:46:35;;;;;;;10.80;5.40;;;-2.90;1.00;;;;;;5034688;28;20161;-74
2021/03/07 04:49:01;;;;;;;8.83;5.30;;;;;;;;;;5034627;28;20156;-74
2021/03/07 04:51:27;;;;;;;8.35;5.97;;;-3.00;1.00;;;;;;5033909;28;20169;-70
2021/03/07 04:53:53;;;;;;;10.47;5.80;;;;;;;;;;5045221;28;20201;-70
2021/03/07 04:56:18;;;;;;;9.55;5.50;;;-3.10;1.00;;;;;;5045756;28;20263;-69
2021/03/07 04:58:44;;;;;;;9.67;5.80;;;-3.10;1.00;;;;;;5054205;28;20235;-70
2021/03/07 05:01:10;;;;;;;11.90;6.57;;;-3.20;1.00;;;;;;5038245;28;20172;-70
2021/03/07 05:03:36;;;;;;;12.90;6.60;;;;;;;;;;5033567;28;20251;-70
2021/03/07 05:06:02;;;;;;;10.05;5.95;;;;;;;;;;5034670;28;20165;-69
2021/03/07 05:08:29;;;;;;;11.10;6.10;;;-3.20;1.00;;;;;;5034101;28;20629;-70
2021/03/07 05:10:54;;;;;;;11.13;5.75;;;-3.20;1.00;;;;;;5035203;28;20160;-70
2021/03/07 05:13:21;;;;;;;11.03;6.20;;;;;;;;;;5052109;28;20176;-69
2021/03/07 05:15:47;;;;;;;10.18;5.97;;;;;;;;;;5041344;28;20441;-70
2021/03/07 05:18:12;;;;;;;14.68;6.80;;;-3.20;1.00;;;;;;5045218;28;20530;-70
2021/03/07 05:20:38;;;;;;;9.87;6.03;;;;;;;;;;5053870;28;20168;-74
2021/03/07 05:23:04;;;;;;;14.15;6.32;;;-3.30;1.00;;;;;;5040586;28;20192;-74
2021/03/07 05:25:30;;;;;;;11.30;6.20;;;-3.20;1.00;;;;;;5033824;28;20545;-74
2021/03/07 05:27:56;;;;;;;15.70;6.97;;;;;;;;;;5038105;28;20164;-75
2021/03/07 05:30:22;;;;;;;9.95;6.20;;;-3.20;1.00;;;;;;5053765;28;20159;-74
2021/03/07 05:32:47;;;;;;;11.65;6.43;;;-3.20;1.00;;;;;;5044501;28;20168;-74
2021/03/07 05:35:13;;;;;;;12.70;5.60;;;-3.20;1.00;;;;;;5033978;28;20557;-70
2021/03/07 05:37:39;;;;;;;11.17;7.00;;;-3.20;1.00;;;;;;5033668;28;20164;-70
2021/03/07 05:40:06;;;;;;;12.57;6.17;;;-3.20;1.00;;;;;;5033425;28;20185;-70
2021/03/07 05:42:33;;;;;;;11.38;6.40;;;-3.20;1.00;;;;;;5036673;28;20208;-70
2021/03/07 05:44:59;;;;;;;9.77;6.18;;;-3.20;1.00;;;;;;5033575;28;20196;-70
2021/03/07 05:47:25;;;;;;;13.73;7.57;;;-3.20;1.00;;;;;;5033466;28;20153;-70
2021/03/07 05:49:55;;;;;;;10.25;6.05;;;-3.20;1.00;;;;;;5034057;28;20484;-70
2021/03/07 05:52:24;;;;;;;11.05;7.03;;;-3.20;1.00;;;;;;5033467;28;20163;-74
2021/03/07 05:54:54;;;;;;;17.63;7.55;;;-3.20;1.00;;;;;;5046369;28;20184;-74
2021/03/07 05:57:22;;;;;;;13.23;6.55;;;-3.20;1.00;;;;;;5033374;28;20175;-74
2021/03/07 05:59:49;;;;;;;12.20;6.05;;;-3.20;1.00;;;;;;5033235;28;20259;-74
2021/03/07 06:02:15;;;;;;;11.13;6.05;;;-3.20;1.00;;;;;;5033091;28;20204;-74
2021/03/07 06:04:49;;;;;;;9.90;5.97;;;-3.20;1.00;;;;;;5033293;28;20157;-73
2021/03/07 06:07:15;;;;;;;12.50;6.05;;;-3.20;1.00;;;;;;5033478;28;20456;-70
2021/03/07 06:09:41;;;;;;;12.37;6.70;;;;;;;;;;5037849;28;20172;-70
2021/03/07 06:12:19;;;;;;;11.90;7.03;;;-3.20;1.00;;;;;;5033064;28;20171;-70
2021/03/07 06:14:59;;;;;;;8.15;6.00;;;-3.20;1.00;;;;;;5032314;28;20644;-70
2021/03/07 06:17:43;;;;;;;13.23;6.20;;;-3.20;1.00;;;;;;5045805;28;20188;-70
2021/03/07 06:20:12;;;;;;;11.40;6.65;;;-3.10;1.00;;;;;;5053021;28;20243;-73
2021/03/07 06:22:39;;;;;;;13.20;7.00;;;-3.10;1.00;;;;;;5043214;28;20199;-70
2021/03/07 06:25:10;;;;;;;11.38;6.35;;;-3.10;1.00;;;;;;5032759;28;20159;-69
2021/03/07 06:27:36;;;;;;;11.98;6.70;;;-3.20;1.00;;;;;;5033978;28;20176;-69
2021/03/07 06:30:14;;;;;;;24.40;6.47;;;-3.20;1.00;;;;;;5033152;28;20177;-70
2021/03/07 06:32:50;;;;;;;11.77;5.40;;;-3.20;1.00;;;;;;5032939;28;20149;-76
2021/03/07 06:35:22;;;;;;;9.23;5.85;;;-3.10;1.00;;;;;;5033008;28;20315;-71
2021/03/07 06:38:08;;;;;;;9.82;6.25;;;-3.10;1.00;;;;;;5031413;28;20195;-72
2021/03/07 06:40:39;;;;;;;11.23;5.93;;;-3.10;1.00;;;;;;5032822;28;20621;-72
2021/03/07 06:43:22;;;;;;;9.95;6.18;;;-3.00;1.00;;;;;;5037383;28;20690;-71
2021/03/07 06:45:48;;;;;;;12.80;6.68;;;-2.90;1.00;;;;;;5032553;28;20180;-70
2021/03/07 06:48:15;;;;;;;12.70;6.53;;;;;;;;;;5034148;28;20317;-70
2021/03/07 06:50:59;;;;;;;12.32;6.15;;;-2.90;1.00;;;;;;5032881;28;20448;-74
2021/03/07 06:53:39;;;;;;;9.80;5.97;;;-2.80;1.00;;;;;;5051889;28;20258;-74
2021/03/07 06:56:05;;;;;;;10.88;6.68;;;-2.80;1.00;;;;;;5047962;28;20187;-74
2021/03/07 06:58:32;;;;;;;9.23;6.15;;;-2.70;1.00;;;;;;5040059;28;20225;-75
2021/03/07 07:00:58;;;;;;;10.63;6.35;;;-2.60;1.00;;;;;;5032415;28;20152;-74
2021/03/07 07:03:24;;;;;;;9.65;6.00;;;-2.60;1.00;;;;;;5034616;28;20204;-74
2021/03/07 07:05:52;;;;;;;8.32;5.50;;;-2.40;1.00;;;;;;5032752;28;20160;-74
2021/03/07 07:08:39;;;;;;;10.57;5.95;;;-2.30;1.00;;;;;;5033776;28;20640;-74
2021/03/07 07:11:06;;;;;;;10.95;6.82;;;-2.20;1.00;;;;;;5070819;28;20178;-74
2021/03/07 07:13:48;;;;;;;11.40;6.70;;;-2.10;1.00;;;;;;5069912;28;20312;-74
2021/03/07 07:16:14;;;;;;;9.85;5.80;;;;;;;;;;5051596;28;20160;-75
2021/03/07 07:18:43;;;;;;;8.93;5.60;;;-1.90;1.00;;;;;;5044136;28;20657;-74
2021/03/07 07:21:11;;;;;;;9.68;5.30;;;-1.80;1.00;;;;;;5049757;28;20164;-70
2021/03/07 07:23:37;;;;;;;11.13;5.45;;;-1.70;1.00;;;;;;5041428;28;20580;-70
2021/03/07 07:26:04;;;;;;;7.93;5.65;;;-1.60;1.00;;;;;;5035207;28;20168;-70
2021/03/07 07:28:31;;;;;;;9.40;5.32;;;-1.50;1.00;;;;;;5037193;28;20171;-70
2021/03/07 07:31:00;;;;;;;5.45;4.75;;;-1.40;1.00;;;;;;5035965;28;20172;-70
2021/03/07 07:33:47;;;;;;;4.15;2.92;;;-1.30;1.00;;;;;;5037106;28;20780;-70
2021/03/07 07:36:22;;;;;;;6.10;2.50;;;-1.10;1.00;;;;;;5068795;28;20245;-70
2021/03/07 07:38:50;;;;;;;4.57;3.25;;;-1.00;1.00;;;;;;5037589;28;20168;-70
2021/03/07 07:41:27;;;;;;;4.43;2.67;;;-0.90;1.00;;;;;;5035804;28;20160;-70
2021/03/07 07:43:53;;;;;;;8.38;3.53;;;;;;;;;;5039389;28;20703;-70
2021/03/07 07:46:19;;;;;;;3.15;2.85;;;-0.60;1.00;;;;;;5041211;28;20221;-70
2021/03/07 07:48:45;;;;;;;2.78;2.58;;;-0.50;1.00;;;;;;5045605;28;20164;-70
2021/03/07 07:51:32;;;;;;;4.90;2.90;;;-0.20;1.00;;;;;;5055702;28;20613;-74
2021/03/07 07:53:59;;;;;;;4.00;3.03;;;-0.10;1.00;;;;;;5055541;28;20517;-74
2021/03/07 07:56:40;;;;;;;6.68;2.88;;;0.00;1.00;;;;;;5053475;28;20222;-74
2021/03/07 07:59:08;;;;;;;4.28;3.50;;;0.20;1.00;;;;;;5055512;28;20210;-74
2021/03/07 08:01:54;;;;;;;2.72;2.45;;;0.30;1.00;;;;;;5035982;28;20171;-75
2021/03/07 08:04:28;;;;;;;6.95;2.60;;;0.50;1.00;;;;;;5035458;28;20159;-74
2021/03/07 08:06:59;;;;;;;4.60;3.63;;;0.60;1.00;;;;;;5035586;28;20172;-70
2021/03/07 08:09:44;;;;;;;4.63;3.15;;;0.70;1.00;;;;;;5035337;28;20153;-70
2021/03/07 08:12:47;;;;;;;4.05;3.25;;;0.90;1.00;;;;;;5044481;28;20167;-70
2021/03/07 08:15:37;;;;;;;5.63;3.72;;;1.10;1.00;;;;;;5053834;28;20176;-70
2021/03/07 08:18:04;;;;;;;8.57;3.58;;;1.30;1.00;;;;;;5054777;28;20183;-70
2021/03/07 08:20:41;;;;;;;5.32;3.65;;;1.50;1.00;;;;;;5054529;28;20673;-70
2021/03/07 08:23:16;;;;;;;9.50;3.92;;;1.70;1.00;;;;;;5055482;28;20686;-75
2021/03/07 08:25:51;;;;;;;4.15;3.22;;;1.90;1.00;;;;;;5053088;28;20179;-75
2021/03/07 08:28:29;;;;;;;8.15;4.03;;;1.90;1.00;;;;;;5045397;28;20164;-74
2021/03/07 08:31:02;;;;;;;5.30;3.63;;;2.10;1.00;;;;;;5054901;28;20230;-75
2021/03/07 08:33:35;;;;;;;5.22;3.20;;;2.20;1.00;;;;;;5054892;28;20160;-74
2021/03/07 08:36:17;;;;;;;8.48;4.38;;;2.30;1.00;;;;;;5054803;28;20248;-74
2021/03/07 08:38:52;;;;;;;7.20;3.92;;;2.30;1.00;;;;;;5051859;28;20233;-75
2021/03/07 08:41:25;;;;;;;7.97;4.03;;;2.40;1.00;;;;;;5041598;28;20227;-74
2021/03/07 08:43:57;;;;;;;9.02;4.80;;;2.50;1.00;;;;;;5049173;28;20223;-74
2021/03/07 08:46:45;;;;;;;7.47;4.35;;;2.70;1.00;;;;;;5037084;28;20540;-74
2021/03/07 08:49:16;;;;;;;10.60;3.65;;;2.80;1.00;;;;;;5034543;28;20169;-74
2021/03/07 08:51:45;;;;;;;9.00;3.45;;;2.80;1.00;;;;;;5034848;28;20153;-71
2021/03/07 08:54:22;;;;;;;7.85;4.35;;;3.00;1.00;;;;;;5034417;28;20172;-70
2021/03/07 08:56:50;;;;;;;6.95;4.40;;;3.10;1.00;;;;;;5034008;28;20182;-70
2021/03/07 08:59:16;;;;;;;6.60;4.45;;;3.20;1.00;;;;;;5038586;28;20570;-70
2021/03/07 09:01:42;;;;;;;17.75;4.97;;;;;;;;;;5040614;28;20172;-70
2021/03/07 09:04:11;;;;;;;8.43;4.32;;;3.30;1.00;;;;;;5033681;28;20191;-70
2021/03/07 09:06:43;;;;;;;6.53;3.85;;;3.50;1.00;;;;;;5053370;28;20245;-70
2021/03/07 09:09:12;;;;;;;7.00;4.15;;;3.50;1.00;;;;;;5054321;28;20636;-77
2021/03/07 09:12:01;;;;;;;8.25;4.43;;;3.50;1.00;;;;;;5059027;28;20163;-77
2021/03/07 09:14:36;;;;;;;5.57;3.85;;;3.70;1.00;;;;;;5074099;28;20697;-77
2021/03/07 09:17:05;;;;;;;6.95;4.20;;;3.80;1.00;;;;;;5068885;28;20183;-77
2021/03/07 09:19:37;;;;;;;10.38;4.00;;;4.00;1.00;;;;;;5053542;28;20168;-77
2021/03/07 09:22:17;;;;;;;10.70;4.13;;;3.90;1.00;;;;;;5054244;28;20274;-75
2021/03/07 09:24:50;;;;;;;6.38;3.88;;;3.80;1.00;;;;;;5054112;28;20159;-76
2021/03/07 09:27:16;;;;;;;7.50;4.47;;;;;;;;;;5053937;28;20214;-77
2021/03/07 09:29:57;;;;;;;6.50;4.13;;;4.00;1.00;;;;;;5044062;28;20192;-78
2021/03/07 09:32:33;;;;;;;8.63;4.70;;;4.10;1.00;;;;;;5041167;28;20206;-77
2021/03/07 09:35:00;;;;;;;6.35;4.38;;;4.20;1.00;;;;;;5053399;28;20189;-77
2021/03/07 09:37:27;;;;;;;11.93;4.80;;;4.40;1.00;;;;;;5048814;28;20684;-77
2021/03/07 09:39:54;;;;;;;6.80;4.65;;;4.50;1.00;;;;;;5036914;28;20196;-77
2021/03/07 09:42:21;;;;;;;10.75;4.10;;;4.70;1.00;;;;;;5033782;28;20188;-77
2021/03/07 09:44:48;;;;;;;8.00;4.82;;;;;;;;;;5034508;28;20188;-77
2021/03/07 09:47:16;;;;;;;8.20;4.00;;;5.00;1.00;;;;;;5033204;28;20187;-77
2021/03/07 09:49:42;;;;;;;5.60;3.45;;;;;;;;;;5050643;28;20172;-77
2021/03/07 09:52:14;;;;;;;10.70;4.13;;;5.20;1.00;;;;;;5053589;28;20223;-71
2021/03/07 09:54:52;;;;;;;5.93;3.30;;;5.40;1.00;;;;;;5052241;28;20175;-77
2021/03/07 09:57:20;;;;;;;5.28;3.08;;;5.40;1.00;;;;;;5053551;28;20213;-76
2021/03/07 09:59:50;;;;;;;7.63;3.90;;;5.50;1.00;;;;;;5053205;28;20164;-75
2021/03/07 10:02:16;;;;;;;5.05;3.00;;;5.60;1.00;;;;;;5046813;28;20196;-75
2021/03/07 10:04:47;;;;;;;4.50;2.70;;;5.60;1.00;;;;;;5033532;28;20243;-74
2021/03/07 10:07:18;;;;;;;3.30;2.37;;;;;;;;;;5033408;28;20388;-74
2021/03/07 10:10:10;;;;;;;5.80;3.30;;;5.70;1.00;;;;;;5051398;28;20464;-74
2021/03/07 10:12:55;;;;;;;4.00;2.93;;;5.80;1.00;;;;;;5052933;28;20406;-74
2021/03/07 10:15:33;;;;;;;5.43;2.90;;;6.00;1.00;;;;;;5052694;28;20441;-74
2021/03/07 10:18:17;;;;;;;4.35;2.85;;;6.10;1.00;;;;;;5037337;28;20939;-74
2021/03/07 10:20:43;;;;;;;7.38;3.35;;;;;;;;;;5032727;28;20167;-74
2021/03/07 10:23:10;;;;;;;5.60;3.57;;;6.10;1.00;;;;;;5033279;28;20188;-74
2021/03/07 10:25:38;;;;;;;4.67;3.27;;;6.10;1.00;;;;;;5032936;28;20383;-74
2021/03/07 10:28:04;;;;;;;4.50;2.90;;;6.20;1.00;;;;;;5032947;28;20394;-74
2021/03/07 10:30:41;;;;;;;6.43;3.07;;;6.40;1.00;;;;;;5032847;28;20984;-74
2021/03/07 10:33:12;;;;;;;7.43;2.73;;;6.50;1.00;;;;;;5032932;28;20422;-74
2021/03/07 10:35:39;;;;;;;3.30;2.60;;;;;;;;;;5032833;28;20430;-74
2021/03/07 10:38:05;;;;;;;3.53;2.23;;;;;;;;;;5033203;28;20788;-74
2021/03/07 10:40:34;;;;;;;3.00;2.70;;;6.70;1.00;;;;;;5030232;28;20426;-74
2021/03/07 10:43:04;;;;;;;4.20;3.00;;;6.70;1.00;;;;;;5042591;28;20548;-74
2021/03/07 10:45:30;;;;;;;4.60;3.47;;;;;;;;;;5049269;28;20771;-74
2021/03/07 10:48:07;;;;;;;4.80;3.10;;;6.80;1.00;;;;;;5037465;28;20426;-74
2021/03/07 10:50:34;;;;;;;3.33;2.67;;;6.80;1.00;;;;;;5052624;28;20504;-74
2021/03/07 10:53:00;;;;;;;4.40;3.20;;;;;;;;;;5052854;28;20856;-70
2021/03/07 10:55:26;;;;;;;4.10;2.80;;;;;;;;;;5052573;28;20386;-70
2021/03/07 10:57:53;;;;;;;6.00;3.60;;;;;;;;;;5052558;28;20731;-70
2021/03/07 11:00:20;;;;;;;6.20;2.90;;;7.00;1.00;;;;;;5043989;28;20399;-70
2021/03/07 11:02:46;;;;;;;4.20;3.23;;;;;;;;;;5046503;28;20450;-70
2021/03/07 11:05:13;;;;;;;8.32;3.42;;;7.10;1.00;;;;;;5056299;28;20405;-70
2021/03/07 11:07:39;;;;;;;3.90;2.50;;;;;;;;;;5056624;28;20171;-70
2021/03/07 11:10:07;;;;;;;6.47;3.07;;;7.20;1.00;;;;;;5056702;28;20386;-70
2021/03/07 11:12:33;;;;;;;6.03;2.77;;;7.30;1.00;;;;;;5055949;28;20417;-70
2021/03/07 11:14:59;;;;;;;5.13;3.10;;;;;;;;;;5055816;28;20399;-70
2021/03/07 11:17:25;;;;;;;4.80;2.83;;;;;;;;;;5056022;28;20773;-70
2021/03/07 11:19:51;;;;;;;4.43;3.10;;;;;;;;;;5055967;28;20390;-70
2021/03/07 11:22:17;;;;;;;5.23;3.20;;;;;;;;;;5056137;28;20489;-70
2021/03/07 11:24:44;;;;;;;4.23;3.13;;;;;;;;;;5055203;28;20418;-71
2021/03/07 11:27:09;;;;;;;3.73;2.90;;;7.90;1.00;;;;;;5056156;28;20402;-70
2021/03/07 11:29:35;;;;;;;4.20;2.80;;;;;;;;;;5056058;28;20398;-70
2021/03/07 11:32:01;;;;;;;4.40;2.70;;;;;;;;;;5056070;28;20509;-70
2021/03/07 11:34:27;;;;;;;2.60;2.13;;;7.80;1.00;;;;;;5055841;28;20432;-70
2021/03/07 11:36:53;;;;;;;4.77;2.50;;;;;;;;;;5047076;28;20423;-70
2021/03/07 11:39:19;;;;;;;4.60;2.50;;;;;;;;;;5036351;28;20421;-74
2021/03/07 11:41:45;;;;;;;2.60;2.30;;;;;;;;;;5035948;28;20944;-74
2021/03/07 11:44:11;;;;;;;9.17;2.70;;;;;;;;;;5035863;28;20487;-74
2021/03/07 11:46:37;;;;;;;2.33;2.13;;;;;;;;;;5035356;28;21226;-74
2021/03/07 11:49:03;;;;;;;5.60;2.43;;;;;;;;;;5042368;28;20427;-75
2021/03/07 11:51:29;;;;;;;2.33;2.20;;;8.00;1.00;;;;;;5035728;28;20394;-74
2021/03/07 11:53:55;;;;;;;4.50;3.00;;;8.00;1.00;;;;;;5036179;28;20403;-71
2021/03/07 11:56:21;;;;;;;2.60;2.30;;;;;;;;;;5035721;28;20168;-70
2021/03/07 11:58:47;;;;;;;4.47;2.80;;;;;;;;;;5033857;28;20183;-71
2021/03/07 12:01:13;;;;;;;4.57;2.97;;;;;;;;;;5047049;28;20419;-73
2021/03/07 12:03:38;;;;;;;3.23;2.80;;;8.20;1.00;;;;;;5052297;28;20493;-72
2021/03/07 12:06:04;;;;;;;3.20;2.57;;;;;;;;;;5040890;28;20414;-71
2021/03/07 12:08:30;;;;;;;3.00;2.17;;;;;;;;;;5035704;28;20524;-75
2021/03/07 12:10:57;;;;;;;3.10;2.40;;;8.30;1.00;;;;;;5035729;28;20391;-79
2021/03/07 12:13:24;;;;;;;4.73;2.90;;;;;;;;;;5035382;28;20450;-81
2021/03/07 12:15:50;;;;;;;3.10;2.20;;;;;;;;;;5033843;28;20816;-81
2021/03/07 12:18:15;;;;;;;2.00;1.87;;;;;;;;;;5048345;28;20500;-79
2021/03/07 12:20:42;;;;;;;3.50;2.80;;;;;;;;;;5053539;28;20414;-79
2021/03/07 12:23:08;;;;;;;4.47;3.00;;;;;;;;;;5055424;28;20454;-77
2021/03/07 12:25:34;;;;;;;3.23;2.40;;;;;;;;;;5055479;28;20420;-77
2021/03/07 12:28:00;;;;;;;3.17;2.53;;;;;;;;;;5055059;28;20401;-77
2021/03/07 12:30:26;;;;;;;4.20;2.53;;;;;;;;;;5055020;28;20390;-77
2021/03/07 12:32:52;;;;;;;4.23;2.80;;;;;;;;;;5055024;28;20394;-79
2021/03/07 12:35:18;;;;;;;3.90;2.83;;;;;;;;;;5054981;28;20426;-79
2021/03/07 12:37:44;;;;;;;3.77;2.53;;;;;;;;;;5054904;28;20848;-79
2021/03/07 12:40:10;;;;;;;4.33;3.23;;;9.10;1.00;;;;;;5055243;28;20429;-79
2021/03/07 12:42:35;;;;;;;3.00;2.60;;;9.20;1.00;;;;;;5054700;28;20461;-73
2021/03/07 12:45:02;;;;;;;4.73;3.10;;;;;;;;;;5053376;28;20410;-75
2021/03/07 12:47:27;;;;;;;5.30;2.70;;;9.30;1.00;;;;;;5053332;28;20183;-75
2021/03/07 12:49:53;;;;;;;3.20;2.27;;;9.40;1.00;;;;;;5043761;28;20888;-76
2021/03/07 12:52:19;;;;;;;4.37;2.80;;;9.60;1.00;;;;;;5034698;28;20167;-77
2021/03/07 12:54:44;;;;;;;7.00;3.30;;;9.40;1.00;;;;;;5033655;28;20184;-72
2021/03/07 12:57:10;;;;;;;3.60;2.70;;;;;;;;;;5033869;28;20169;-72
2021/03/07 12:59:36;;;;;;;4.20;2.83;;;9.20;1.00;;;;;;5038119;28;20184;-72
2021/03/07 13:02:02;;;;;;;5.60;3.30;;;9.30;1.00;;;;;;5036229;28;20411;-70
2021/03/07 13:04:28;;;;;;;5.00;3.00;;;9.30;1.00;;;;;;5049014;28;20191;-71
2021/03/07 13:06:54;;;;;;;6.67;2.33;;;;;;;;;;5034559;28;20407;-71
2021/03/07 13:09:20;;;;;;;4.37;3.07;;;9.50;1.00;;;;;;5039324;28;20578;-74
2021/03/07 13:11:46;;;;;;;3.17;2.23;;;9.50;1.00;;;;;;5054889;28;20394;-74
2021/03/07 13:14:22;;;;;;;4.93;2.43;;;9.50;1.00;;;;;;5054348;28;20290;-74
2021/03/07 13:16:48;;;;;;;3.97;2.80;;;;;;;;;;5053572;28;20258;-74
2021/03/07 13:19:16;;;;;;;4.70;3.10;;;9.70;1.00;;;;;;5054522;28;20452;-74
2021/03/07 13:21:46;;;;;;;3.10;2.80;;;9.60;1.00;;;;;;5053388;28;20866;-74
2021/03/07 13:24:11;;;;;;;4.40;2.90;;;9.60;1.00;;;;;;5052518;28;20791;-74
2021/03/07 13:26:37;;;;;;;2.57;2.30;;;;;;;;;;5040080;28;20407;-70
2021/03/07 13:29:03;;;;;;;3.87;2.80;;;9.70;1.00;;;;;;5033317;28;20222;-70
2021/03/07 13:31:29;;;;;;;3.37;2.33;;;9.60;1.00;;;;;;5033278;28;20411;-70